Pursley, Texas
Current Conditions -  °F | °C
As of 4:53 PM on Wednesday 22 Oct 2014 (Local Time) from KCRS Reporting Station
Clear Clear  
Wind Chill: 80°   Ceiling: Unl
Heat Index: 80°   Visibility: 10mi
Dew Point: 53°   Wind: 7mph
Humidity: 39%   Direction: 80°E
Pressure: 30.08"   Gusts: NA
Location:  31.9458°N, 96.5713°W
Report Text: KCRS 222153Z AUTO 08006KT 10SM CLR 27/12 A3008 RMK AO2 SLP182 T02670117
Loading
Personal Weather Stations






























Interactive Weather Map
Tropical Storm Tracking
New forecast layout! Learn more

10-Day Weather Forecast

Advertisements
Track Severe Weather on mobile